createdAt,value
2023-04-25T00:00:22.955Z,94561.00
2023-04-25T00:01:22.966Z,94561.00
2023-04-25T00:02:23.030Z,94561.00
2023-04-25T00:03:23.319Z,94559.00
2023-04-25T00:04:23.286Z,94567.00
2023-04-25T00:05:23.043Z,94565.00
2023-04-25T00:06:22.954Z,94563.00
2023-04-25T00:07:29.689Z,94563.00
2023-04-25T00:08:22.933Z,94563.00
2023-04-25T00:09:22.974Z,94567.00
2023-04-25T00:10:22.932Z,94565.00
2023-04-25T00:11:22.942Z,94565.00
2023-04-25T00:12:22.937Z,94563.00
2023-04-25T00:13:23.050Z,94561.00
2023-04-25T00:14:22.922Z,94565.00
2023-04-25T00:15:22.934Z,94563.00
2023-04-25T00:16:22.961Z,94567.00
2023-04-25T00:17:22.967Z,94567.00
2023-04-25T00:18:22.934Z,94567.00
2023-04-25T00:19:23.692Z,94563.00
2023-04-25T00:20:22.954Z,94559.00
2023-04-25T00:21:22.981Z,94557.00
2023-04-25T00:22:23.042Z,94557.00
2023-04-25T00:23:23.094Z,94557.00
2023-04-25T00:24:23.158Z,94557.00
2023-04-25T00:25:23.213Z,94555.00
2023-04-25T00:26:23.268Z,94553.00
2023-04-25T00:27:23.313Z,94553.00
2023-04-25T00:28:23.394Z,94551.00
2023-04-25T00:29:23.466Z,94549.00
2023-04-25T00:30:23.493Z,94549.00
2023-04-25T00:31:23.604Z,94547.00
2023-04-25T00:32:23.608Z,94546.00
2023-04-25T00:33:23.655Z,94546.00
2023-04-25T00:34:23.698Z,94546.00
2023-04-25T00:35:23.775Z,94544.00
2023-04-25T00:36:23.823Z,94547.00
2023-04-25T00:37:23.880Z,94547.00
2023-04-25T00:38:23.922Z,94546.00
2023-04-25T00:39:23.969Z,94544.00
2023-04-25T00:40:24.033Z,94544.00
2023-04-25T00:41:24.086Z,94544.00
2023-04-25T00:42:24.123Z,94546.00
2023-04-25T00:43:24.166Z,94546.00
2023-04-25T00:44:24.231Z,94546.00
2023-04-25T00:45:24.294Z,94546.00
2023-04-25T00:46:24.391Z,94544.00
2023-04-25T00:47:24.363Z,94544.00
2023-04-25T00:48:24.413Z,94546.00
2023-04-25T00:49:24.471Z,94544.00
2023-04-25T00:50:24.530Z,94540.00
2023-04-25T00:51:24.592Z,94540.00
2023-04-25T00:52:24.656Z,94538.00
2023-04-25T00:53:24.700Z,94536.00
2023-04-25T00:54:24.760Z,94536.00
2023-04-25T00:55:25.181Z,94536.00
2023-04-25T00:56:25.180Z,94538.00
2023-04-25T00:57:25.185Z,94534.00
2023-04-25T00:58:25.184Z,94536.00
2023-04-25T00:59:25.187Z,94534.00
2023-04-25T01:00:25.186Z,94534.00
2023-04-25T01:01:25.266Z,94532.00
2023-04-25T01:02:25.288Z,94532.00
2023-04-25T01:03:25.543Z,94528.00
2023-04-25T01:04:25.384Z,94532.00
2023-04-25T01:05:25.317Z,94530.00
2023-04-25T01:06:25.357Z,94530.00
2023-04-25T01:07:25.422Z,94532.00
2023-04-25T01:08:25.462Z,94534.00
2023-04-25T01:09:25.531Z,94532.00
2023-04-25T01:10:25.580Z,94534.00
2023-04-25T01:11:25.642Z,94536.00
2023-04-25T01:12:25.678Z,94540.00
2023-04-25T01:13:26.081Z,94538.00
2023-04-25T01:14:26.132Z,94538.00
2023-04-25T01:15:26.184Z,94534.00
2023-04-25T01:16:26.156Z,94532.00
2023-04-25T01:17:26.166Z,94530.00
2023-04-25T01:18:26.142Z,94530.00
2023-04-25T01:19:26.202Z,94530.00
2023-04-25T01:20:26.131Z,94532.00
2023-04-25T01:21:26.141Z,94530.00
2023-04-25T01:22:26.207Z,94536.00
2023-04-25T01:23:26.281Z,94536.00
2023-04-25T01:24:26.287Z,94536.00
2023-04-25T01:25:26.345Z,94538.00
2023-04-25T01:26:26.401Z,94540.00
2023-04-25T01:27:26.442Z,94544.00
2023-04-25T01:28:26.500Z,94542.00
2023-04-25T01:29:26.542Z,94544.00
2023-04-25T01:30:26.606Z,94544.00
2023-04-25T01:31:26.674Z,94542.00
2023-04-25T01:32:27.090Z,94540.00
2023-04-25T01:33:27.152Z,94538.00
2023-04-25T01:34:27.149Z,94536.00
2023-04-25T01:35:27.139Z,94538.00
2023-04-25T01:36:27.146Z,94536.00
2023-04-25T01:37:27.131Z,94538.00
2023-04-25T01:38:27.146Z,94538.00
2023-04-25T01:39:27.141Z,94538.00
2023-04-25T01:40:27.148Z,94536.00
2023-04-25T01:41:27.174Z,94536.00
2023-04-25T01:42:27.224Z,94534.00
2023-04-25T01:43:27.283Z,94530.00
2023-04-25T01:44:27.352Z,94534.00
2023-04-25T01:45:27.416Z,94530.00
2023-04-25T01:46:27.548Z,94534.00
2023-04-25T01:47:27.566Z,94534.00
2023-04-25T01:48:27.566Z,94536.00
2023-04-25T01:49:27.633Z,94540.00
2023-04-25T01:50:27.661Z,94538.00
2023-04-25T01:51:27.724Z,94538.00
2023-04-25T01:52:27.776Z,94538.00
2023-04-25T01:53:27.843Z,94538.00
2023-04-25T01:54:28.218Z,94536.00
2023-04-25T01:55:27.943Z,94534.00
2023-04-25T01:56:28.001Z,94532.00
2023-04-25T01:57:28.123Z,94532.00
2023-04-25T01:58:28.098Z,94532.00
2023-04-25T01:59:28.238Z,94532.00
2023-04-25T02:00:28.208Z,94536.00
2023-04-25T02:01:28.282Z,94540.00
2023-04-25T02:02:28.426Z,94542.00
2023-04-25T02:03:28.474Z,94542.00
2023-04-25T02:04:28.531Z,94544.00
2023-04-25T02:05:28.531Z,94542.00
2023-04-25T02:06:28.565Z,94536.00
2023-04-25T02:07:28.630Z,94538.00
2023-04-25T02:08:28.671Z,94540.00
2023-04-25T02:09:28.706Z,94540.00
2023-04-25T02:10:28.760Z,94534.00
2023-04-25T02:11:28.839Z,94532.00
2023-04-25T02:12:28.877Z,94534.00
2023-04-25T02:13:28.922Z,94530.00
2023-04-25T02:14:28.984Z,94530.00
2023-04-25T02:15:29.029Z,94528.00
2023-04-25T02:16:29.846Z,94524.00
2023-04-25T02:17:29.135Z,94524.00
2023-04-25T02:18:29.239Z,94524.00
2023-04-25T02:19:29.223Z,94530.00
2023-04-25T02:20:29.283Z,94528.00
2023-04-25T02:21:29.359Z,94532.00
2023-04-25T02:22:29.380Z,94534.00
2023-04-25T02:23:29.435Z,94534.00
2023-04-25T02:24:29.493Z,94536.00
2023-04-25T02:25:29.563Z,94536.00
2023-04-25T02:26:29.597Z,94534.00
2023-04-25T02:27:29.649Z,94532.00
2023-04-25T02:28:29.714Z,94530.00
2023-04-25T02:29:29.771Z,94530.00
2023-04-25T02:30:30.739Z,94530.00
2023-04-25T02:31:29.936Z,94528.00
2023-04-25T02:32:30.754Z,94528.00
2023-04-25T02:33:29.992Z,94528.00
2023-04-25T02:34:30.740Z,94526.00
2023-04-25T02:35:30.112Z,94526.00
2023-04-25T02:36:30.162Z,94528.00
2023-04-25T02:37:30.230Z,94526.00
2023-04-25T02:38:30.258Z,94524.00
2023-04-25T02:39:30.332Z,94524.00
2023-04-25T02:40:30.373Z,94526.00
2023-04-25T02:41:30.437Z,94528.00
2023-04-25T02:42:30.495Z,94528.00
2023-04-25T02:43:30.550Z,94528.00
2023-04-25T02:44:30.621Z,94524.00
2023-04-25T02:45:30.676Z,94526.00
2023-04-25T02:46:38.932Z,94524.00
2023-04-25T02:47:30.804Z,94526.00
2023-04-25T02:48:30.732Z,94522.00
2023-04-25T02:49:30.734Z,94520.00
2023-04-25T02:50:30.731Z,94518.00
2023-04-25T02:51:30.730Z,94518.00
2023-04-25T02:52:30.727Z,94516.00
2023-04-25T02:53:30.765Z,94514.00
2023-04-25T02:54:30.738Z,94512.00
2023-04-25T02:55:30.743Z,94514.00
2023-04-25T02:56:30.752Z,94512.00
2023-04-25T02:57:30.746Z,94516.00
2023-04-25T02:58:30.756Z,94514.00
2023-04-25T02:59:30.758Z,94516.00
2023-04-25T03:00:30.803Z,94512.00
2023-04-25T03:01:30.757Z,94514.00
2023-04-25T03:02:30.825Z,94514.00
2023-04-25T03:03:30.867Z,94516.00
2023-04-25T03:04:30.849Z,94514.00
2023-04-25T03:05:30.778Z,94514.00
2023-04-25T03:06:30.782Z,94510.00
2023-04-25T03:07:30.783Z,94506.00
2023-04-25T03:08:30.786Z,94508.00
2023-04-25T03:09:30.818Z,94504.00
2023-04-25T03:10:30.824Z,94502.00
2023-04-25T03:11:30.898Z,94504.00
2023-04-25T03:12:30.957Z,94502.00
2023-04-25T03:13:31.071Z,94502.00
2023-04-25T03:14:31.049Z,94500.00
2023-04-25T03:15:31.136Z,94502.00
2023-04-25T03:16:31.176Z,94497.00
2023-04-25T03:17:31.234Z,94495.00
2023-04-25T03:18:31.263Z,94495.00
2023-04-25T03:19:31.316Z,94493.00
2023-04-25T03:20:31.360Z,94495.00
2023-04-25T03:21:31.437Z,94497.00
2023-04-25T03:22:31.482Z,94493.00
2023-04-25T03:23:31.533Z,94493.00
2023-04-25T03:24:31.603Z,94495.00
2023-04-25T03:25:31.666Z,94493.00
2023-04-25T03:26:31.694Z,94493.00
2023-04-25T03:27:31.717Z,94493.00
2023-04-25T03:28:31.749Z,94493.00
2023-04-25T03:29:32.152Z,94495.00
2023-04-25T03:30:32.195Z,94493.00
2023-04-25T03:31:32.354Z,94493.00
2023-04-25T03:32:32.230Z,94495.00
2023-04-25T03:33:32.222Z,94495.00
2023-04-25T03:34:32.208Z,94495.00
2023-04-25T03:35:32.205Z,94493.00
2023-04-25T03:36:32.207Z,94497.00
2023-04-25T03:37:32.202Z,94497.00
2023-04-25T03:38:32.202Z,94497.00
2023-04-25T03:39:32.208Z,94499.00
2023-04-25T03:40:32.257Z,94500.00
2023-04-25T03:41:32.303Z,94497.00
2023-04-25T03:42:32.308Z,94497.00
2023-04-25T03:43:33.264Z,94497.00
2023-04-25T03:44:32.480Z,94497.00
2023-04-25T03:45:32.481Z,94497.00
2023-04-25T03:46:33.342Z,94499.00
2023-04-25T03:47:32.571Z,94500.00
2023-04-25T03:48:32.583Z,94500.00
2023-04-25T03:49:32.631Z,94497.00
2023-04-25T03:50:32.663Z,94495.00
2023-04-25T03:51:32.702Z,94489.00
2023-04-25T03:52:32.752Z,94489.00
2023-04-25T03:53:32.788Z,94493.00
2023-04-25T03:54:33.217Z,94493.00
2023-04-25T03:55:33.210Z,94491.00
2023-04-25T03:56:33.214Z,94491.00
2023-04-25T03:57:33.233Z,94497.00
2023-04-25T03:58:33.219Z,94493.00
2023-04-25T03:59:33.220Z,94495.00
2023-04-25T04:00:33.225Z,94493.00
2023-04-25T04:01:33.279Z,94493.00
2023-04-25T04:02:33.274Z,94491.00
2023-04-25T04:03:33.457Z,94493.00
2023-04-25T04:04:33.417Z,94495.00
2023-04-25T04:05:33.328Z,94497.00
2023-04-25T04:06:33.352Z,94499.00
2023-04-25T04:07:33.780Z,94502.00
2023-04-25T04:08:33.446Z,94504.00
2023-04-25T04:09:33.502Z,94504.00
2023-04-25T04:10:33.534Z,94502.00
2023-04-25T04:11:33.564Z,94502.00
2023-04-25T04:12:33.606Z,94502.00
2023-04-25T04:13:33.677Z,94504.00
2023-04-25T04:14:33.672Z,94502.00
2023-04-25T04:15:33.774Z,94502.00
2023-04-25T04:16:34.733Z,94506.00
2023-04-25T04:17:33.846Z,94506.00
2023-04-25T04:18:33.861Z,94506.00
2023-04-25T04:19:33.955Z,94504.00
2023-04-25T04:20:33.973Z,94504.00
2023-04-25T04:21:34.028Z,94506.00
2023-04-25T04:22:34.090Z,94504.00
2023-04-25T04:23:34.141Z,94504.00
2023-04-25T04:24:34.222Z,94504.00
2023-04-25T04:25:34.214Z,94500.00
2023-04-25T04:26:34.242Z,94504.00
2023-04-25T04:27:34.263Z,94502.00
2023-04-25T04:28:34.293Z,94508.00
2023-04-25T04:30:52.373Z,94506.00
2023-04-25T04:31:53.338Z,94504.00
2023-04-25T04:32:53.494Z,94508.00
2023-04-25T04:33:53.498Z,94504.00
2023-04-25T04:34:53.291Z,94506.00
2023-04-25T04:35:53.328Z,94506.00
2023-04-25T04:36:53.304Z,94504.00
2023-04-25T04:37:53.323Z,94500.00
2023-04-25T04:38:53.339Z,94502.00
2023-04-25T04:39:53.357Z,94502.00
2023-04-25T04:40:53.374Z,94502.00
2023-04-25T04:41:53.385Z,94502.00
2023-04-25T04:42:53.396Z,94502.00
2023-04-25T04:43:53.421Z,94499.00
2023-04-25T04:44:53.452Z,94502.00
2023-04-25T04:45:53.519Z,94500.00
2023-04-25T04:46:53.708Z,94504.00
2023-04-25T04:47:53.708Z,94499.00
2023-04-25T04:48:53.734Z,94500.00
2023-04-25T04:49:53.809Z,94502.00
2023-04-25T04:50:53.870Z,94499.00
2023-04-25T04:53:11.871Z,94500.00
2023-04-25T04:54:27.503Z,94499.00
2023-04-25T04:55:12.870Z,94500.00
2023-04-25T04:56:12.893Z,94499.00
2023-04-25T04:57:12.900Z,94497.00
2023-04-25T04:58:12.920Z,94499.00
2023-04-25T04:59:12.947Z,94497.00
2023-04-25T05:00:12.942Z,94495.00
2023-04-25T05:01:13.018Z,94495.00
2023-04-25T05:02:13.104Z,94493.00
2023-04-25T05:03:13.121Z,94495.00
2023-04-25T05:04:13.146Z,94495.00
2023-04-25T05:05:13.033Z,94495.00
2023-04-25T05:06:14.253Z,94495.00
2023-04-25T05:07:13.118Z,94493.00
2023-04-25T05:08:13.078Z,94491.00
2023-04-25T05:09:13.088Z,94487.00
2023-04-25T05:10:13.107Z,94483.00
2023-04-25T05:11:13.135Z,94481.00
2023-04-25T05:12:13.230Z,94477.00
2023-04-25T05:13:13.287Z,94479.00
2023-04-25T05:14:13.333Z,94481.00
2023-04-25T05:15:13.420Z,94477.00
2023-04-25T05:16:13.568Z,94477.00
2023-04-25T05:17:13.563Z,94479.00
2023-04-25T05:18:13.669Z,94479.00
2023-04-25T05:19:14.511Z,94477.00
2023-04-25T05:20:13.744Z,94479.00
2023-04-25T05:21:13.821Z,94479.00
2023-04-25T05:22:14.318Z,94481.00
2023-04-25T05:23:14.281Z,94479.00
2023-04-25T05:24:14.285Z,94481.00
2023-04-25T05:25:14.266Z,94483.00
2023-04-25T05:26:14.272Z,94479.00
2023-04-25T05:27:14.284Z,94481.00
2023-04-25T05:28:14.278Z,94481.00
2023-04-25T05:29:15.270Z,94481.00
2023-04-25T05:30:14.395Z,94477.00
2023-04-25T05:31:14.450Z,94477.00
2023-04-25T05:32:14.664Z,94477.00
2023-04-25T05:33:14.610Z,94477.00
2023-04-25T05:34:14.677Z,94477.00
2023-04-25T05:35:14.716Z,94477.00
2023-04-25T05:36:14.789Z,94479.00
2023-04-25T05:37:14.810Z,94479.00
2023-04-25T05:38:15.240Z,94475.00
2023-04-25T05:39:15.276Z,94475.00
2023-04-25T05:40:15.295Z,94473.00
2023-04-25T05:41:15.268Z,94473.00
2023-04-25T05:44:53.130Z,94473.00
2023-04-25T05:45:54.176Z,94471.00
2023-04-25T05:46:54.288Z,94471.00
2023-04-25T05:47:54.210Z,94471.00
2023-04-25T05:49:01.299Z,94471.00
2023-04-25T05:49:54.115Z,94469.00
2023-04-25T05:50:54.083Z,94473.00
2023-04-25T05:51:54.308Z,94473.00
2023-04-25T05:52:54.805Z,94471.00
2023-04-25T05:53:54.156Z,94475.00
2023-04-25T05:54:53.971Z,94473.00
2023-04-25T05:55:54.318Z,94475.00
2023-04-25T05:56:53.921Z,94475.00
2023-04-25T05:57:54.291Z,94477.00
2023-04-25T05:58:54.320Z,94483.00
2023-04-25T05:59:54.315Z,94481.00
2023-04-25T06:00:54.837Z,94483.00
2023-04-25T06:01:54.395Z,94481.00
2023-04-25T06:02:54.411Z,94481.00
2023-04-25T06:03:54.927Z,94479.00
2023-04-25T06:04:54.977Z,94477.00
2023-04-25T06:05:54.383Z,94477.00
2023-04-25T06:06:54.337Z,94477.00
2023-04-25T06:07:54.335Z,94477.00
2023-04-25T06:09:09.930Z,94475.00
2023-04-25T06:09:54.283Z,94471.00
2023-04-25T06:10:54.317Z,94473.00
2023-04-25T06:11:54.289Z,94471.00
2023-04-25T06:12:54.245Z,94469.00
2023-04-25T06:13:54.343Z,94467.00
2023-04-25T06:14:53.843Z,94463.00
2023-04-25T06:15:53.841Z,94463.00
2023-04-25T06:16:53.800Z,94461.00
2023-04-25T06:17:53.832Z,94459.00
2023-04-25T06:18:53.845Z,94461.00
2023-04-25T06:19:53.684Z,94463.00
2023-04-25T06:20:53.662Z,94463.00
2023-04-25T06:21:53.714Z,94459.00
2023-04-25T06:22:53.889Z,94455.00
2023-04-25T06:23:53.817Z,94449.00
2023-04-25T06:24:53.486Z,94445.00
2023-04-25T06:25:53.458Z,94440.00
2023-04-25T06:26:53.425Z,94438.00
2023-04-25T06:28:02.337Z,94438.00
2023-04-25T06:28:53.374Z,94436.00
2023-04-25T06:29:59.790Z,94438.00
2023-04-25T06:32:11.349Z,94444.00
2023-04-25T06:33:12.353Z,94445.00
2023-04-25T06:34:12.316Z,94445.00
2023-04-25T06:35:19.099Z,94445.00
2023-04-25T06:36:12.300Z,94445.00
2023-04-25T06:38:31.530Z,94442.00
2023-04-25T06:39:40.560Z,94442.00
2023-04-25T06:40:38.500Z,94442.00
2023-04-25T06:41:38.001Z,94442.00
2023-04-25T06:42:38.129Z,94442.00
2023-04-25T06:43:38.137Z,94442.00
2023-04-25T06:44:40.592Z,94444.00
2023-04-25T06:46:50.403Z,94445.00
2023-04-25T06:47:51.425Z,94440.00
2023-04-25T06:48:51.597Z,94432.00
2023-04-25T06:49:51.390Z,94432.00
2023-04-25T06:50:58.136Z,94430.00
2023-04-25T06:51:57.783Z,94432.00
2023-04-25T06:53:05.591Z,94436.00
2023-04-25T06:53:51.283Z,94434.00
2023-04-25T06:54:51.623Z,94430.00
2023-04-25T06:58:29.087Z,94432.00
2023-04-25T06:59:29.752Z,94436.00
2023-04-25T07:00:29.330Z,94434.00
2023-04-25T07:02:47.755Z,94434.00
2023-04-25T07:03:58.567Z,94436.00
2023-04-25T07:06:06.434Z,94440.00
2023-04-25T07:08:41.923Z,94440.00
2023-04-25T07:09:42.979Z,94440.00
2023-04-25T07:10:50.187Z,94438.00
2023-04-25T07:11:42.905Z,94438.00
2023-04-25T07:12:50.556Z,94438.00
2023-04-25T07:17:38.356Z,94438.00
2023-04-25T07:18:39.198Z,94438.00
2023-04-25T07:19:46.530Z,94438.00
2023-04-25T07:20:39.272Z,94438.00
2023-04-25T07:25:34.935Z,94442.00
2023-04-25T07:26:45.833Z,94440.00
2023-04-25T07:29:10.789Z,94434.00
2023-04-25T07:30:11.712Z,94438.00
2023-04-25T07:31:18.514Z,94438.00
2023-04-25T07:32:18.573Z,94434.00
2023-04-25T07:34:30.049Z,94438.00
2023-04-25T07:35:30.848Z,94436.00
2023-04-25T07:36:30.573Z,94436.00
2023-04-25T07:38:49.286Z,94436.00
2023-04-25T07:39:49.358Z,94438.00
2023-04-25T07:40:49.665Z,94440.00
2023-04-25T07:41:49.457Z,94436.00
2023-04-25T07:42:49.205Z,94434.00
2023-04-25T07:45:08.291Z,94438.00
2023-04-25T07:46:20.713Z,94442.00
2023-04-25T07:47:08.607Z,94438.00
2023-04-25T07:49:27.577Z,94442.00
2023-04-25T07:50:34.850Z,94442.00
2023-04-25T07:51:28.508Z,94447.00
2023-04-25T07:54:28.542Z,94445.00
2023-04-25T07:56:51.483Z,94453.00
2023-04-25T07:57:48.080Z,94453.00
2023-04-25T08:00:00.188Z,94447.00
2023-04-25T08:01:08.584Z,94447.00
2023-04-25T08:02:01.194Z,94447.00
2023-04-25T08:03:11.596Z,94447.00
2023-04-25T08:04:00.406Z,94445.00
2023-04-25T08:05:01.027Z,94447.00
2023-04-25T08:06:00.450Z,94449.00
2023-04-25T08:08:18.354Z,94449.00
2023-04-25T08:09:19.359Z,94445.00
2023-04-25T08:10:27.254Z,94445.00
2023-04-25T08:11:19.363Z,94444.00
2023-04-25T08:13:38.260Z,94445.00
2023-04-25T08:14:38.825Z,94445.00
2023-04-25T08:15:38.865Z,94444.00
2023-04-25T08:16:38.962Z,94447.00
2023-04-25T08:17:38.833Z,94445.00
2023-04-25T08:18:39.654Z,94445.00
2023-04-25T08:19:38.799Z,94444.00
2023-04-25T08:20:38.811Z,94442.00
2023-04-25T08:21:38.821Z,94444.00
2023-04-25T08:22:38.858Z,94445.00
2023-04-25T08:23:38.969Z,94445.00
2023-04-25T08:24:46.981Z,94447.00
2023-04-25T08:25:39.518Z,94445.00
2023-04-25T08:26:39.383Z,94451.00
2023-04-25T08:27:38.818Z,94447.00
2023-04-25T08:28:39.302Z,94445.00
2023-04-25T08:29:45.778Z,94444.00
2023-04-25T08:30:38.802Z,94444.00
2023-04-25T08:31:47.803Z,94442.00
2023-04-25T08:32:38.843Z,94445.00
2023-04-25T08:33:39.375Z,94445.00
2023-04-25T08:34:38.779Z,94445.00
2023-04-25T08:38:25.391Z,94447.00
2023-04-25T08:39:17.909Z,94447.00
2023-04-25T08:40:17.949Z,94449.00
2023-04-25T08:41:17.952Z,94451.00
2023-04-25T08:42:17.933Z,94451.00
2023-04-25T08:43:18.423Z,94451.00
2023-04-25T08:44:18.321Z,94451.00
2023-04-25T08:45:18.424Z,94453.00
2023-04-25T08:46:18.455Z,94455.00
2023-04-25T08:48:36.700Z,94453.00
2023-04-25T08:50:55.780Z,94455.00
2023-04-25T08:51:56.413Z,94457.00
2023-04-25T08:52:56.375Z,94457.00
2023-04-25T08:53:58.005Z,94457.00
2023-04-25T08:54:56.437Z,94457.00
2023-04-25T08:55:56.417Z,94457.00
2023-04-25T08:56:55.985Z,94455.00
2023-04-25T08:57:55.964Z,94453.00
2023-04-25T08:59:02.794Z,94451.00
2023-04-25T08:59:55.916Z,94451.00
2023-04-25T09:00:55.901Z,94451.00
2023-04-25T09:01:55.873Z,94449.00
2023-04-25T09:02:55.903Z,94449.00
2023-04-25T09:03:56.238Z,94445.00
2023-04-25T09:04:54.706Z,94447.00
2023-04-25T09:08:34.093Z,94445.00
2023-04-25T09:09:35.849Z,94444.00
2023-04-25T09:10:34.407Z,94442.00
2023-04-25T09:11:34.425Z,94445.00
2023-04-25T09:12:33.962Z,94445.00
2023-04-25T09:13:33.934Z,94444.00
2023-04-25T09:14:33.925Z,94451.00
2023-04-25T09:15:33.944Z,94445.00
2023-04-25T09:16:44.399Z,94449.00
2023-04-25T09:17:34.033Z,94447.00
2023-04-25T09:18:40.489Z,94445.00
2023-04-25T09:20:35.335Z,94444.00
2023-04-25T09:21:41.386Z,94442.00
2023-04-25T09:22:33.904Z,94444.00
2023-04-25T09:24:52.532Z,94442.00
2023-04-25T09:29:05.524Z,94442.00
2023-04-25T09:30:06.508Z,94442.00
2023-04-25T09:31:12.455Z,94442.00
2023-04-25T09:32:06.870Z,94444.00
2023-04-25T09:33:06.345Z,94445.00
2023-04-25T09:34:06.138Z,94447.00
2023-04-25T09:35:12.776Z,94447.00
2023-04-25T09:37:25.269Z,94447.00
2023-04-25T09:38:24.645Z,94447.00
2023-04-25T09:39:24.814Z,94445.00
2023-04-25T09:40:25.451Z,94449.00
2023-04-25T09:41:24.708Z,94453.00
2023-04-25T09:42:24.495Z,94453.00
2023-04-25T09:43:24.437Z,94451.00
2023-04-25T09:44:24.399Z,94447.00
2023-04-25T09:45:24.829Z,94444.00
2023-04-25T09:46:24.433Z,94444.00
2023-04-25T09:47:24.479Z,94444.00
2023-04-25T09:48:24.185Z,94444.00
2023-04-25T09:49:24.137Z,94440.00
2023-04-25T09:50:24.103Z,94438.00
2023-04-25T09:51:24.051Z,94442.00
2023-04-25T09:52:25.619Z,94438.00
2023-04-25T09:53:24.031Z,94436.00
2023-04-25T09:54:24.352Z,94434.00
2023-04-25T09:55:23.859Z,94432.00
2023-04-25T09:56:24.087Z,94432.00
2023-04-25T09:57:23.769Z,94430.00
2023-04-25T09:58:23.703Z,94428.00
2023-04-25T09:59:24.025Z,94428.00
2023-04-25T10:00:23.624Z,94428.00
2023-04-25T10:01:23.576Z,94430.00
2023-04-25T10:02:23.959Z,94428.00
2023-04-25T10:03:23.621Z,94426.00
2023-04-25T10:04:23.932Z,94430.00
2023-04-25T10:05:23.368Z,94426.00
2023-04-25T10:06:23.394Z,94426.00
2023-04-25T10:07:23.218Z,94424.00
2023-04-25T10:08:23.168Z,94426.00
2023-04-25T10:09:23.669Z,94422.00
2023-04-25T10:10:23.493Z,94420.00
2023-04-25T10:11:23.013Z,94422.00
2023-04-25T10:12:23.445Z,94418.00
2023-04-25T10:13:22.940Z,94416.00
2023-04-25T10:14:22.864Z,94414.00
2023-04-25T10:15:22.783Z,94414.00
2023-04-25T10:16:22.756Z,94408.00
2023-04-25T10:17:22.653Z,94412.00
2023-04-25T10:18:23.135Z,94406.00
2023-04-25T10:19:22.653Z,94408.00
2023-04-25T10:20:22.536Z,94404.00
2023-04-25T10:21:22.423Z,94402.00
2023-04-25T10:22:22.402Z,94402.00
2023-04-25T10:23:22.850Z,94404.00
2023-04-25T10:24:22.925Z,94404.00
2023-04-25T10:25:22.321Z,94404.00
2023-04-25T10:26:22.286Z,94400.00
2023-04-25T10:27:22.275Z,94398.00
2023-04-25T10:28:22.353Z,94397.00
2023-04-25T10:29:22.495Z,94395.00
2023-04-25T10:30:22.588Z,94397.00
2023-04-25T10:31:22.289Z,94395.00
2023-04-25T10:32:22.349Z,94395.00
2023-04-25T10:33:22.415Z,94393.00
2023-04-25T10:34:22.174Z,94393.00
2023-04-25T10:35:22.100Z,94393.00
2023-04-25T10:36:28.952Z,94391.00
2023-04-25T10:37:22.402Z,94381.00
2023-04-25T10:38:21.966Z,94391.00
2023-04-25T10:39:22.478Z,94391.00
2023-04-25T10:40:21.838Z,94391.00
2023-04-25T10:41:21.810Z,94391.00
2023-04-25T10:42:21.721Z,94383.00
2023-04-25T10:43:21.666Z,94381.00
2023-04-25T10:44:21.626Z,94381.00
2023-04-25T10:45:21.895Z,94383.00
2023-04-25T10:46:21.517Z,94381.00
2023-04-25T10:47:21.594Z,94391.00
2023-04-25T10:48:21.478Z,94391.00
2023-04-25T10:49:21.962Z,94395.00
2023-04-25T10:50:21.529Z,94404.00
2023-04-25T10:51:21.498Z,94404.00
2023-04-25T10:52:21.634Z,94398.00
2023-04-25T10:53:21.348Z,94402.00
2023-04-25T10:54:21.393Z,94398.00
2023-04-25T10:55:21.378Z,94400.00
2023-04-25T10:56:21.335Z,94398.00
2023-04-25T10:57:21.280Z,94398.00
2023-04-25T10:58:21.396Z,94400.00
2023-04-25T10:59:21.401Z,94398.00
2023-04-25T11:00:21.190Z,94397.00
2023-04-25T11:01:21.226Z,94397.00
2023-04-25T11:02:21.283Z,94381.00
2023-04-25T11:03:21.220Z,94383.00
2023-04-25T11:04:21.666Z,94391.00
2023-04-25T11:05:21.474Z,94391.00
2023-04-25T11:06:21.924Z,94383.00
2023-04-25T11:07:21.875Z,94379.00
2023-04-25T11:08:20.926Z,94383.00
2023-04-25T11:09:21.401Z,94383.00
2023-04-25T11:10:20.878Z,94377.00
2023-04-25T11:11:20.790Z,94383.00
2023-04-25T11:12:20.749Z,94377.00
2023-04-25T11:13:20.707Z,94377.00
2023-04-25T11:14:20.885Z,94373.00
2023-04-25T11:15:20.630Z,94371.00
2023-04-25T11:16:27.540Z,94373.00
2023-04-25T11:17:20.896Z,94375.00
2023-04-25T11:18:20.562Z,94375.00
2023-04-25T11:19:21.446Z,94379.00
2023-04-25T11:20:20.406Z,94371.00
2023-04-25T11:21:20.326Z,94375.00
2023-04-25T11:22:20.414Z,94373.00
2023-04-25T11:23:20.258Z,94371.00
2023-04-25T11:24:20.186Z,94373.00
2023-04-25T11:25:20.134Z,94365.00
2023-04-25T11:26:20.092Z,94367.00
2023-04-25T11:27:20.903Z,94367.00
2023-04-25T11:28:19.947Z,94367.00
2023-04-25T11:29:19.893Z,94367.00
2023-04-25T11:30:19.846Z,94371.00
2023-04-25T11:31:19.839Z,94369.00
2023-04-25T11:32:21.317Z,94367.00
2023-04-25T11:33:19.737Z,94365.00
2023-04-25T11:34:20.420Z,94371.00
2023-04-25T11:35:19.582Z,94363.00
2023-04-25T11:36:19.894Z,94367.00
2023-04-25T11:37:19.477Z,94363.00
2023-04-25T11:38:19.443Z,94365.00
2023-04-25T11:39:19.373Z,94365.00
2023-04-25T11:40:19.321Z,94359.00
2023-04-25T11:41:19.405Z,94363.00
2023-04-25T11:42:19.207Z,94369.00
2023-04-25T11:43:21.478Z,94373.00
2023-04-25T11:44:19.099Z,94379.00
2023-04-25T11:45:19.400Z,94373.00
2023-04-25T11:46:19.023Z,94375.00
2023-04-25T11:47:18.960Z,94379.00
2023-04-25T11:48:19.143Z,94379.00
2023-04-25T11:49:18.852Z,94395.00
2023-04-25T11:50:18.894Z,94393.00
2023-04-25T11:51:18.751Z,94397.00
2023-04-25T11:52:18.919Z,94397.00
2023-04-25T11:53:18.653Z,94395.00
2023-04-25T11:54:18.630Z,94402.00
2023-04-25T11:55:19.402Z,94406.00
2023-04-25T11:56:21.399Z,94412.00
2023-04-25T11:57:18.915Z,94414.00
2023-04-25T11:58:18.928Z,94420.00
2023-04-25T11:59:18.442Z,94420.00
2023-04-25T12:00:19.250Z,94428.00
2023-04-25T12:01:18.266Z,94444.00
2023-04-25T12:02:18.325Z,94438.00
2023-04-25T12:03:18.540Z,94444.00
2023-04-25T12:04:18.426Z,94447.00
2023-04-25T12:06:17.400Z,94463.00
2023-04-25T12:07:18.432Z,94467.00
2023-04-25T12:08:17.958Z,94463.00
2023-04-25T12:09:17.921Z,94469.00
2023-04-25T12:10:17.933Z,94481.00
2023-04-25T12:11:17.858Z,94489.00
2023-04-25T12:12:17.913Z,94485.00
2023-04-25T12:13:17.749Z,94487.00
2023-04-25T12:14:17.715Z,94493.00
2023-04-25T12:15:17.909Z,94497.00
2023-04-25T12:16:17.660Z,94504.00
2023-04-25T12:17:17.558Z,94510.00
2023-04-25T12:18:17.596Z,94506.00
2023-04-25T12:19:17.472Z,94510.00
2023-04-25T12:20:17.913Z,94516.00
2023-04-25T12:21:17.381Z,94512.00
2023-04-25T12:22:17.438Z,94512.00
2023-04-25T12:23:18.649Z,94510.00
2023-04-25T12:24:17.249Z,94508.00
2023-04-25T12:25:17.409Z,94506.00
2023-04-25T12:26:17.270Z,94508.00
2023-04-25T12:27:17.908Z,94506.00
2023-04-25T12:28:17.250Z,94502.00
2023-04-25T12:29:17.536Z,94500.00
2023-04-25T12:30:17.408Z,94499.00
2023-04-25T12:31:18.941Z,94499.00
2023-04-25T12:32:17.438Z,94495.00
2023-04-25T12:33:17.469Z,94493.00
2023-04-25T12:34:19.927Z,94493.00
2023-04-25T12:35:17.418Z,94487.00
2023-04-25T12:36:17.922Z,94487.00
2023-04-25T12:37:16.959Z,94479.00
2023-04-25T12:38:17.418Z,94479.00